< < Back
Terminal Aerodrome Forecast


Current Version              Previous Versions:   1  2  3  4  5  6  7  8  9  

Terminal Aerodrome Forecast

454
FTUS42 KFFC 301100
TAFPDK
TAF
KPDK 301121Z 3012/0112 00000KT P6SM BKN015
     FM301400 00000KT P6SM SCT010
     FM301800 02003KT P6SM FEW040
     FM302200 VRB03KT P6SM FEW100
     FM011000 00000KT 5SM BR FEW250=

Latest METAR

332
SAUS70 KWBC 011000 RRP
MTRPDK
METAR KPDK 010953Z AUTO 00000KT 8SM CLR 16/14 A2996 RMK AO2 SLP134 P0001
T01560144


USA.gov is the U.S. government's official web portal to all federal, state and local government web resources and services.